sensor_id;sensor_type;location;lat;lon;timestamp;P1;durP1;ratioP1;P2;durP2;ratioP2
15116;SDS011;7659;51.038;13.786;2023-06-22T00:01:06;10.80;;;8.48;;
15116;SDS011;7659;51.038;13.786;2023-06-22T00:03:31;12.05;;;8.68;;
15116;SDS011;7659;51.038;13.786;2023-06-22T00:05:57;9.98;;;8.75;;
15116;SDS011;7659;51.038;13.786;2023-06-22T00:08:22;12.82;;;9.02;;
15116;SDS011;7659;51.038;13.786;2023-06-22T00:10:48;12.43;;;9.48;;
15116;SDS011;7659;51.038;13.786;2023-06-22T00:13:14;10.38;;;8.15;;
15116;SDS011;7659;51.038;13.786;2023-06-22T00:15:40;10.73;;;8.35;;
15116;SDS011;7659;51.038;13.786;2023-06-22T00:18:07;10.00;;;8.90;;
15116;SDS011;7659;51.038;13.786;2023-06-22T00:20:32;9.90;;;8.63;;
15116;SDS011;7659;51.038;13.786;2023-06-22T00:23:01;15.02;;;8.82;;
15116;SDS011;7659;51.038;13.786;2023-06-22T00:25:28;11.52;;;8.18;;
15116;SDS011;7659;51.038;13.786;2023-06-22T00:27:53;9.57;;;8.32;;
15116;SDS011;7659;51.038;13.786;2023-06-22T00:30:19;12.15;;;9.18;;
15116;SDS011;7659;51.038;13.786;2023-06-22T00:32:44;9.88;;;8.73;;
15116;SDS011;7659;51.038;13.786;2023-06-22T00:35:11;10.40;;;8.98;;
15116;SDS011;7659;51.038;13.786;2023-06-22T00:37:37;9.43;;;8.30;;
15116;SDS011;7659;51.038;13.786;2023-06-22T00:40:06;12.70;;;9.00;;
15116;SDS011;7659;51.038;13.786;2023-06-22T00:42:34;10.65;;;9.20;;
15116;SDS011;7659;51.038;13.786;2023-06-22T00:44:59;12.05;;;9.07;;
15116;SDS011;7659;51.038;13.786;2023-06-22T00:47:25;13.13;;;9.23;;
15116;SDS011;7659;51.038;13.786;2023-06-22T00:49:50;11.45;;;8.82;;
15116;SDS011;7659;51.038;13.786;2023-06-22T00:52:16;10.75;;;8.52;;
15116;SDS011;7659;51.038;13.786;2023-06-22T00:54:46;16.27;;;8.80;;
15116;SDS011;7659;51.038;13.786;2023-06-22T00:57:14;12.70;;;8.35;;
15116;SDS011;7659;51.038;13.786;2023-06-22T00:59:44;9.48;;;8.48;;
15116;SDS011;7659;51.038;13.786;2023-06-22T01:02:10;9.88;;;8.60;;
15116;SDS011;7659;51.038;13.786;2023-06-22T01:04:37;11.40;;;8.93;;
15116;SDS011;7659;51.038;13.786;2023-06-22T01:07:07;12.50;;;8.80;;
15116;SDS011;7659;51.038;13.786;2023-06-22T01:09:42;10.02;;;8.43;;
15116;SDS011;7659;51.038;13.786;2023-06-22T01:12:09;12.57;;;8.95;;
15116;SDS011;7659;51.038;13.786;2023-06-22T01:14:37;10.23;;;9.18;;
15116;SDS011;7659;51.038;13.786;2023-06-22T01:17:04;13.73;;;9.38;;
15116;SDS011;7659;51.038;13.786;2023-06-22T01:22:07;9.85;;;8.63;;
15116;SDS011;7659;51.038;13.786;2023-06-22T01:27:46;11.33;;;8.40;;
15116;SDS011;7659;51.038;13.786;2023-06-22T01:30:13;13.40;;;9.57;;
15116;SDS011;7659;51.038;13.786;2023-06-22T01:32:41;10.65;;;9.05;;
15116;SDS011;7659;51.038;13.786;2023-06-22T01:35:07;12.18;;;9.00;;
15116;SDS011;7659;51.038;13.786;2023-06-22T01:37:34;11.10;;;9.35;;
15116;SDS011;7659;51.038;13.786;2023-06-22T01:40:00;10.05;;;9.05;;
15116;SDS011;7659;51.038;13.786;2023-06-22T01:42:26;11.32;;;9.68;;
15116;SDS011;7659;51.038;13.786;2023-06-22T01:44:52;13.52;;;9.40;;
15116;SDS011;7659;51.038;13.786;2023-06-22T01:47:18;10.60;;;9.50;;
15116;SDS011;7659;51.038;13.786;2023-06-22T01:49:44;13.70;;;9.63;;
15116;SDS011;7659;51.038;13.786;2023-06-22T01:52:09;11.45;;;9.57;;
15116;SDS011;7659;51.038;13.786;2023-06-22T01:54:36;11.32;;;8.98;;
15116;SDS011;7659;51.038;13.786;2023-06-22T01:57:02;11.30;;;9.15;;
15116;SDS011;7659;51.038;13.786;2023-06-22T01:59:29;11.80;;;9.70;;
15116;SDS011;7659;51.038;13.786;2023-06-22T02:02:04;11.75;;;9.32;;
15116;SDS011;7659;51.038;13.786;2023-06-22T02:04:34;13.07;;;9.48;;
15116;SDS011;7659;51.038;13.786;2023-06-22T02:07:01;9.70;;;8.68;;
15116;SDS011;7659;51.038;13.786;2023-06-22T02:09:31;10.55;;;9.18;;
15116;SDS011;7659;51.038;13.786;2023-06-22T02:11:57;11.93;;;9.18;;
15116;SDS011;7659;51.038;13.786;2023-06-22T02:14:23;10.23;;;9.23;;
15116;SDS011;7659;51.038;13.786;2023-06-22T02:16:49;11.13;;;9.00;;
15116;SDS011;7659;51.038;13.786;2023-06-22T02:19:15;11.05;;;9.50;;
15116;SDS011;7659;51.038;13.786;2023-06-22T02:21:41;12.15;;;9.32;;
15116;SDS011;7659;51.038;13.786;2023-06-22T02:24:06;13.38;;;9.57;;
15116;SDS011;7659;51.038;13.786;2023-06-22T02:26:32;10.23;;;9.20;;
15116;SDS011;7659;51.038;13.786;2023-06-22T02:29:00;11.15;;;9.70;;
15116;SDS011;7659;51.038;13.786;2023-06-22T02:31:25;11.93;;;9.73;;
15116;SDS011;7659;51.038;13.786;2023-06-22T02:33:59;10.43;;;9.32;;
15116;SDS011;7659;51.038;13.786;2023-06-22T02:36:24;10.10;;;9.05;;
15116;SDS011;7659;51.038;13.786;2023-06-22T02:38:52;10.55;;;9.35;;
15116;SDS011;7659;51.038;13.786;2023-06-22T02:41:17;10.68;;;9.40;;
15116;SDS011;7659;51.038;13.786;2023-06-22T02:43:47;11.75;;;9.68;;
15116;SDS011;7659;51.038;13.786;2023-06-22T02:46:13;11.75;;;9.88;;
15116;SDS011;7659;51.038;13.786;2023-06-22T02:48:40;11.02;;;9.85;;
15116;SDS011;7659;51.038;13.786;2023-06-22T02:51:06;14.48;;;9.90;;
15116;SDS011;7659;51.038;13.786;2023-06-22T02:53:33;12.35;;;10.32;;
15116;SDS011;7659;51.038;13.786;2023-06-22T02:55:58;10.95;;;9.35;;
15116;SDS011;7659;51.038;13.786;2023-06-22T02:58:27;13.55;;;9.02;;
15116;SDS011;7659;51.038;13.786;2023-06-22T03:00:53;10.13;;;9.10;;
15116;SDS011;7659;51.038;13.786;2023-06-22T03:03:19;14.48;;;9.95;;
15116;SDS011;7659;51.038;13.786;2023-06-22T03:05:44;12.18;;;10.73;;
15116;SDS011;7659;51.038;13.786;2023-06-22T03:08:10;10.65;;;9.55;;
15116;SDS011;7659;51.038;13.786;2023-06-22T03:10:35;14.85;;;9.27;;
15116;SDS011;7659;51.038;13.786;2023-06-22T03:13:01;12.80;;;10.10;;
15116;SDS011;7659;51.038;13.786;2023-06-22T03:15:27;12.60;;;10.15;;
15116;SDS011;7659;51.038;13.786;2023-06-22T03:17:54;12.10;;;9.95;;
15116;SDS011;7659;51.038;13.786;2023-06-22T03:20:22;12.40;;;10.48;;
15116;SDS011;7659;51.038;13.786;2023-06-22T03:22:48;12.43;;;10.00;;
15116;SDS011;7659;51.038;13.786;2023-06-22T03:25:14;12.45;;;10.23;;
15116;SDS011;7659;51.038;13.786;2023-06-22T03:27:42;12.98;;;9.57;;
15116;SDS011;7659;51.038;13.786;2023-06-22T03:30:09;17.50;;;10.00;;
15116;SDS011;7659;51.038;13.786;2023-06-22T03:32:35;13.77;;;9.18;;
15116;SDS011;7659;51.038;13.786;2023-06-22T03:35:01;12.15;;;9.55;;
15116;SDS011;7659;51.038;13.786;2023-06-22T03:37:27;13.55;;;9.30;;
15116;SDS011;7659;51.038;13.786;2023-06-22T03:39:53;11.07;;;9.75;;
15116;SDS011;7659;51.038;13.786;2023-06-22T03:42:20;11.93;;;8.57;;
15116;SDS011;7659;51.038;13.786;2023-06-22T03:44:45;13.32;;;10.38;;
15116;SDS011;7659;51.038;13.786;2023-06-22T03:47:11;11.50;;;9.80;;
15116;SDS011;7659;51.038;13.786;2023-06-22T03:49:37;12.18;;;9.18;;
15116;SDS011;7659;51.038;13.786;2023-06-22T03:52:02;10.55;;;9.45;;
15116;SDS011;7659;51.038;13.786;2023-06-22T03:54:28;14.15;;;10.45;;
15116;SDS011;7659;51.038;13.786;2023-06-22T03:56:54;11.07;;;9.55;;
15116;SDS011;7659;51.038;13.786;2023-06-22T03:59:20;11.75;;;9.50;;
15116;SDS011;7659;51.038;13.786;2023-06-22T04:01:45;11.50;;;9.85;;
15116;SDS011;7659;51.038;13.786;2023-06-22T04:04:11;11.02;;;9.65;;
15116;SDS011;7659;51.038;13.786;2023-06-22T04:06:38;13.55;;;10.52;;
15116;SDS011;7659;51.038;13.786;2023-06-22T04:09:03;12.32;;;10.38;;
15116;SDS011;7659;51.038;13.786;2023-06-22T04:11:28;14.98;;;10.18;;
15116;SDS011;7659;51.038;13.786;2023-06-22T04:13:54;12.73;;;9.93;;
15116;SDS011;7659;51.038;13.786;2023-06-22T04:16:20;11.10;;;10.00;;
15116;SDS011;7659;51.038;13.786;2023-06-22T04:18:46;17.75;;;10.93;;
15116;SDS011;7659;51.038;13.786;2023-06-22T04:21:11;15.80;;;10.65;;
15116;SDS011;7659;51.038;13.786;2023-06-22T04:23:37;14.75;;;11.15;;
15116;SDS011;7659;51.038;13.786;2023-06-22T04:26:02;11.93;;;9.73;;
15116;SDS011;7659;51.038;13.786;2023-06-22T04:28:27;14.98;;;10.27;;
15116;SDS011;7659;51.038;13.786;2023-06-22T04:30:53;12.88;;;10.20;;
15116;SDS011;7659;51.038;13.786;2023-06-22T04:33:23;13.15;;;10.40;;
15116;SDS011;7659;51.038;13.786;2023-06-22T04:35:48;12.18;;;9.65;;
15116;SDS011;7659;51.038;13.786;2023-06-22T04:38:14;11.57;;;10.00;;
15116;SDS011;7659;51.038;13.786;2023-06-22T04:40:39;14.23;;;10.27;;
15116;SDS011;7659;51.038;13.786;2023-06-22T04:43:05;11.77;;;9.55;;
15116;SDS011;7659;51.038;13.786;2023-06-22T04:45:32;14.57;;;9.80;;
15116;SDS011;7659;51.038;13.786;2023-06-22T04:47:57;12.00;;;9.38;;
15116;SDS011;7659;51.038;13.786;2023-06-22T04:50:23;14.23;;;10.32;;
15116;SDS011;7659;51.038;13.786;2023-06-22T04:52:49;13.05;;;9.23;;
15116;SDS011;7659;51.038;13.786;2023-06-22T04:55:14;10.98;;;9.82;;
15116;SDS011;7659;51.038;13.786;2023-06-22T04:57:45;11.88;;;9.90;;
15116;SDS011;7659;51.038;13.786;2023-06-22T05:00:22;12.85;;;10.23;;
15116;SDS011;7659;51.038;13.786;2023-06-22T05:02:48;11.43;;;9.75;;
15116;SDS011;7659;51.038;13.786;2023-06-22T05:05:14;15.43;;;10.48;;
15116;SDS011;7659;51.038;13.786;2023-06-22T05:07:41;14.20;;;10.30;;
15116;SDS011;7659;51.038;13.786;2023-06-22T05:10:08;13.75;;;10.30;;
15116;SDS011;7659;51.038;13.786;2023-06-22T05:12:35;20.15;;;10.15;;
15116;SDS011;7659;51.038;13.786;2023-06-22T05:15:00;16.35;;;9.55;;
15116;SDS011;7659;51.038;13.786;2023-06-22T05:17:26;14.75;;;9.75;;
15116;SDS011;7659;51.038;13.786;2023-06-22T05:19:52;15.52;;;9.45;;
15116;SDS011;7659;51.038;13.786;2023-06-22T05:22:18;14.30;;;9.63;;
15116;SDS011;7659;51.038;13.786;2023-06-22T05:24:44;15.95;;;9.50;;
15116;SDS011;7659;51.038;13.786;2023-06-22T05:27:09;13.07;;;9.40;;
15116;SDS011;7659;51.038;13.786;2023-06-22T05:29:36;14.93;;;9.52;;
15116;SDS011;7659;51.038;13.786;2023-06-22T05:32:20;15.93;;;9.50;;
15116;SDS011;7659;51.038;13.786;2023-06-22T05:34:46;12.43;;;9.35;;
15116;SDS011;7659;51.038;13.786;2023-06-22T05:37:11;14.20;;;9.13;;
15116;SDS011;7659;51.038;13.786;2023-06-22T05:39:38;10.75;;;9.40;;
15116;SDS011;7659;51.038;13.786;2023-06-22T05:42:07;12.18;;;10.23;;
15116;SDS011;7659;51.038;13.786;2023-06-22T05:44:33;15.93;;;9.80;;
15116;SDS011;7659;51.038;13.786;2023-06-22T05:46:58;12.80;;;9.73;;
15116;SDS011;7659;51.038;13.786;2023-06-22T05:49:24;15.95;;;9.18;;
15116;SDS011;7659;51.038;13.786;2023-06-22T05:51:55;14.82;;;10.02;;
15116;SDS011;7659;51.038;13.786;2023-06-22T05:54:20;13.90;;;8.90;;
15116;SDS011;7659;51.038;13.786;2023-06-22T05:56:45;10.63;;;8.70;;
15116;SDS011;7659;51.038;13.786;2023-06-22T05:59:11;13.15;;;9.20;;
15116;SDS011;7659;51.038;13.786;2023-06-22T06:01:37;12.95;;;8.85;;
15116;SDS011;7659;51.038;13.786;2023-06-22T06:04:03;11.93;;;9.27;;
15116;SDS011;7659;51.038;13.786;2023-06-22T06:06:29;12.23;;;8.80;;
15116;SDS011;7659;51.038;13.786;2023-06-22T06:08:54;10.93;;;9.18;;
15116;SDS011;7659;51.038;13.786;2023-06-22T06:11:21;15.48;;;9.07;;
15116;SDS011;7659;51.038;13.786;2023-06-22T06:13:46;12.70;;;9.23;;
15116;SDS011;7659;51.038;13.786;2023-06-22T06:16:12;11.23;;;8.57;;
15116;SDS011;7659;51.038;13.786;2023-06-22T06:18:37;14.38;;;9.15;;
15116;SDS011;7659;51.038;13.786;2023-06-22T06:21:03;14.88;;;8.55;;
15116;SDS011;7659;51.038;13.786;2023-06-22T06:23:28;11.73;;;8.73;;
15116;SDS011;7659;51.038;13.786;2023-06-22T06:25:54;10.15;;;8.57;;
15116;SDS011;7659;51.038;13.786;2023-06-22T06:28:19;9.02;;;8.10;;
15116;SDS011;7659;51.038;13.786;2023-06-22T06:30:45;12.50;;;8.00;;
15116;SDS011;7659;51.038;13.786;2023-06-22T06:33:12;11.43;;;8.23;;
15116;SDS011;7659;51.038;13.786;2023-06-22T06:35:38;13.88;;;8.13;;
15116;SDS011;7659;51.038;13.786;2023-06-22T06:38:03;11.40;;;7.75;;
15116;SDS011;7659;51.038;13.786;2023-06-22T06:40:29;9.77;;;7.93;;
15116;SDS011;7659;51.038;13.786;2023-06-22T06:42:54;9.77;;;7.78;;
15116;SDS011;7659;51.038;13.786;2023-06-22T06:45:22;10.38;;;7.53;;
15116;SDS011;7659;51.038;13.786;2023-06-22T06:47:48;9.18;;;8.05;;
15116;SDS011;7659;51.038;13.786;2023-06-22T06:50:14;12.20;;;8.55;;
15116;SDS011;7659;51.038;13.786;2023-06-22T06:52:39;13.23;;;8.32;;
15116;SDS011;7659;51.038;13.786;2023-06-22T06:55:05;8.75;;;7.80;;
15116;SDS011;7659;51.038;13.786;2023-06-22T06:57:37;10.85;;;8.52;;
15116;SDS011;7659;51.038;13.786;2023-06-22T07:00:06;9.27;;;7.90;;
15116;SDS011;7659;51.038;13.786;2023-06-22T07:02:35;11.15;;;8.10;;
15116;SDS011;7659;51.038;13.786;2023-06-22T07:05:00;11.55;;;7.78;;
15116;SDS011;7659;51.038;13.786;2023-06-22T07:07:28;10.00;;;8.85;;
15116;SDS011;7659;51.038;13.786;2023-06-22T07:09:54;11.98;;;8.13;;
15116;SDS011;7659;51.038;13.786;2023-06-22T07:12:19;12.43;;;9.30;;
15116;SDS011;7659;51.038;13.786;2023-06-22T07:14:45;13.55;;;8.50;;
15116;SDS011;7659;51.038;13.786;2023-06-22T07:17:10;10.73;;;7.63;;
15116;SDS011;7659;51.038;13.786;2023-06-22T07:19:36;10.77;;;8.20;;
15116;SDS011;7659;51.038;13.786;2023-06-22T07:22:01;13.38;;;8.65;;
15116;SDS011;7659;51.038;13.786;2023-06-22T07:24:27;11.02;;;8.43;;
15116;SDS011;7659;51.038;13.786;2023-06-22T07:26:52;10.05;;;8.27;;
15116;SDS011;7659;51.038;13.786;2023-06-22T07:29:18;9.80;;;8.43;;
15116;SDS011;7659;51.038;13.786;2023-06-22T07:31:45;12.80;;;8.45;;
15116;SDS011;7659;51.038;13.786;2023-06-22T07:34:10;9.43;;;8.43;;
15116;SDS011;7659;51.038;13.786;2023-06-22T07:36:36;13.15;;;8.52;;
15116;SDS011;7659;51.038;13.786;2023-06-22T07:39:02;11.10;;;8.45;;
15116;SDS011;7659;51.038;13.786;2023-06-22T07:41:28;13.77;;;8.07;;
15116;SDS011;7659;51.038;13.786;2023-06-22T07:43:54;14.63;;;8.30;;
15116;SDS011;7659;51.038;13.786;2023-06-22T07:46:19;10.48;;;7.75;;
15116;SDS011;7659;51.038;13.786;2023-06-22T07:48:45;8.85;;;8.00;;
15116;SDS011;7659;51.038;13.786;2023-06-22T07:51:10;11.40;;;7.85;;
15116;SDS011;7659;51.038;13.786;2023-06-22T07:53:42;8.52;;;7.45;;
15116;SDS011;7659;51.038;13.786;2023-06-22T07:56:10;13.07;;;7.22;;
15116;SDS011;7659;51.038;13.786;2023-06-22T07:58:35;12.07;;;7.13;;
15116;SDS011;7659;51.038;13.786;2023-06-22T08:01:01;20.73;;;7.28;;
15116;SDS011;7659;51.038;13.786;2023-06-22T08:03:26;9.68;;;7.28;;
15116;SDS011;7659;51.038;13.786;2023-06-22T08:05:52;11.80;;;7.47;;
15116;SDS011;7659;51.038;13.786;2023-06-22T08:08:17;8.88;;;7.18;;
15116;SDS011;7659;51.038;13.786;2023-06-22T08:10:43;9.55;;;7.07;;
15116;SDS011;7659;51.038;13.786;2023-06-22T08:13:09;10.43;;;7.40;;
15116;SDS011;7659;51.038;13.786;2023-06-22T08:15:35;8.73;;;7.53;;
15116;SDS011;7659;51.038;13.786;2023-06-22T08:18:00;7.97;;;6.90;;
15116;SDS011;7659;51.038;13.786;2023-06-22T08:20:27;12.38;;;7.05;;
15116;SDS011;7659;51.038;13.786;2023-06-22T08:22:53;8.25;;;6.70;;
15116;SDS011;7659;51.038;13.786;2023-06-22T08:25:18;8.50;;;6.65;;
15116;SDS011;7659;51.038;13.786;2023-06-22T08:27:47;11.82;;;6.20;;
15116;SDS011;7659;51.038;13.786;2023-06-22T08:30:13;7.88;;;7.07;;
15116;SDS011;7659;51.038;13.786;2023-06-22T08:32:39;9.85;;;6.28;;
15116;SDS011;7659;51.038;13.786;2023-06-22T08:35:04;10.65;;;6.40;;
15116;SDS011;7659;51.038;13.786;2023-06-22T08:37:31;10.18;;;6.22;;
15116;SDS011;7659;51.038;13.786;2023-06-22T08:40:01;8.73;;;6.35;;
15116;SDS011;7659;51.038;13.786;2023-06-22T08:42:27;10.60;;;6.53;;
15116;SDS011;7659;51.038;13.786;2023-06-22T08:44:52;9.32;;;6.05;;
15116;SDS011;7659;51.038;13.786;2023-06-22T08:47:19;6.50;;;5.90;;
15116;SDS011;7659;51.038;13.786;2023-06-22T08:49:45;6.88;;;6.05;;
15116;SDS011;7659;51.038;13.786;2023-06-22T08:52:10;8.27;;;5.97;;
15116;SDS011;7659;51.038;13.786;2023-06-22T08:54:36;8.52;;;6.18;;
15116;SDS011;7659;51.038;13.786;2023-06-22T08:57:01;6.90;;;5.70;;
15116;SDS011;7659;51.038;13.786;2023-06-22T08:59:27;7.88;;;6.00;;
15116;SDS011;7659;51.038;13.786;2023-06-22T09:01:52;6.63;;;6.00;;
15116;SDS011;7659;51.038;13.786;2023-06-22T09:04:18;6.88;;;6.10;;
15116;SDS011;7659;51.038;13.786;2023-06-22T09:06:43;6.93;;;6.15;;
15116;SDS011;7659;51.038;13.786;2023-06-22T09:09:15;9.15;;;6.18;;
15116;SDS011;7659;51.038;13.786;2023-06-22T09:11:40;8.68;;;6.03;;
15116;SDS011;7659;51.038;13.786;2023-06-22T09:14:06;7.72;;;6.60;;
15116;SDS011;7659;51.038;13.786;2023-06-22T09:16:31;11.73;;;6.38;;
15116;SDS011;7659;51.038;13.786;2023-06-22T09:18:57;10.88;;;6.43;;
15116;SDS011;7659;51.038;13.786;2023-06-22T09:21:23;8.88;;;5.90;;
15116;SDS011;7659;51.038;13.786;2023-06-22T09:23:48;6.60;;;5.65;;
15116;SDS011;7659;51.038;13.786;2023-06-22T09:26:19;8.30;;;7.50;;
15116;SDS011;7659;51.038;13.786;2023-06-22T09:28:45;7.88;;;6.13;;
15116;SDS011;7659;51.038;13.786;2023-06-22T09:31:11;10.00;;;6.88;;
15116;SDS011;7659;51.038;13.786;2023-06-22T09:33:36;9.40;;;6.18;;
15116;SDS011;7659;51.038;13.786;2023-06-22T09:36:04;7.95;;;5.95;;
15116;SDS011;7659;51.038;13.786;2023-06-22T09:38:30;6.60;;;6.00;;
15116;SDS011;7659;51.038;13.786;2023-06-22T09:40:56;8.13;;;6.03;;
15116;SDS011;7659;51.038;13.786;2023-06-22T09:43:21;7.72;;;5.82;;
15116;SDS011;7659;51.038;13.786;2023-06-22T09:45:46;6.97;;;6.10;;
15116;SDS011;7659;51.038;13.786;2023-06-22T09:48:12;6.53;;;5.60;;
15116;SDS011;7659;51.038;13.786;2023-06-22T09:50:37;15.60;;;6.15;;
15116;SDS011;7659;51.038;13.786;2023-06-22T09:53:03;6.88;;;5.53;;
15116;SDS011;7659;51.038;13.786;2023-06-22T09:55:28;7.60;;;5.75;;
15116;SDS011;7659;51.038;13.786;2023-06-22T09:57:54;5.40;;;4.90;;
15116;SDS011;7659;51.038;13.786;2023-06-22T10:00:20;6.68;;;5.85;;
15116;SDS011;7659;51.038;13.786;2023-06-22T10:02:47;7.50;;;5.68;;
15116;SDS011;7659;51.038;13.786;2023-06-22T10:05:12;6.30;;;5.68;;
15116;SDS011;7659;51.038;13.786;2023-06-22T10:07:38;7.80;;;6.05;;
15116;SDS011;7659;51.038;13.786;2023-06-22T10:10:07;6.55;;;5.65;;
15116;SDS011;7659;51.038;13.786;2023-06-22T10:12:33;9.38;;;5.75;;
15116;SDS011;7659;51.038;13.786;2023-06-22T10:14:59;10.63;;;5.57;;
15116;SDS011;7659;51.038;13.786;2023-06-22T10:17:24;6.55;;;5.90;;
15116;SDS011;7659;51.038;13.786;2023-06-22T10:19:50;7.57;;;6.35;;
15116;SDS011;7659;51.038;13.786;2023-06-22T10:22:15;9.27;;;6.50;;
15116;SDS011;7659;51.038;13.786;2023-06-22T10:24:40;9.07;;;6.03;;
15116;SDS011;7659;51.038;13.786;2023-06-22T10:27:12;9.13;;;6.72;;
15116;SDS011;7659;51.038;13.786;2023-06-22T10:29:38;10.68;;;8.20;;
15116;SDS011;7659;51.038;13.786;2023-06-22T10:32:04;8.65;;;7.15;;
15116;SDS011;7659;51.038;13.786;2023-06-22T10:34:30;7.32;;;6.63;;
15116;SDS011;7659;51.038;13.786;2023-06-22T10:36:55;6.18;;;5.60;;
15116;SDS011;7659;51.038;13.786;2023-06-22T10:39:21;8.27;;;6.53;;
15116;SDS011;7659;51.038;13.786;2023-06-22T10:41:46;7.13;;;5.68;;
15116;SDS011;7659;51.038;13.786;2023-06-22T10:44:12;9.85;;;5.68;;
15116;SDS011;7659;51.038;13.786;2023-06-22T10:46:37;9.48;;;6.03;;
15116;SDS011;7659;51.038;13.786;2023-06-22T10:49:03;10.63;;;6.35;;
15116;SDS011;7659;51.038;13.786;2023-06-22T10:51:28;7.53;;;6.75;;
15116;SDS011;7659;51.038;13.786;2023-06-22T10:53:54;7.47;;;5.93;;
15116;SDS011;7659;51.038;13.786;2023-06-22T10:56:20;6.47;;;5.68;;
15116;SDS011;7659;51.038;13.786;2023-06-22T10:58:45;9.52;;;6.05;;
15116;SDS011;7659;51.038;13.786;2023-06-22T11:01:11;6.32;;;5.63;;
15116;SDS011;7659;51.038;13.786;2023-06-22T11:03:36;8.80;;;6.03;;
15116;SDS011;7659;51.038;13.786;2023-06-22T11:06:02;5.40;;;4.90;;
15116;SDS011;7659;51.038;13.786;2023-06-22T11:08:27;6.82;;;6.13;;
15116;SDS011;7659;51.038;13.786;2023-06-22T11:10:53;12.50;;;5.75;;
15116;SDS011;7659;51.038;13.786;2023-06-22T11:13:18;7.47;;;5.72;;
15116;SDS011;7659;51.038;13.786;2023-06-22T11:15:44;6.50;;;5.72;;
15116;SDS011;7659;51.038;13.786;2023-06-22T11:18:09;6.40;;;5.80;;
15116;SDS011;7659;51.038;13.786;2023-06-22T11:20:35;7.15;;;6.22;;
15116;SDS011;7659;51.038;13.786;2023-06-22T11:23:04;7.35;;;5.97;;
15116;SDS011;7659;51.038;13.786;2023-06-22T11:25:30;8.25;;;5.68;;
15116;SDS011;7659;51.038;13.786;2023-06-22T11:27:56;6.28;;;5.60;;
15116;SDS011;7659;51.038;13.786;2023-06-22T11:30:21;6.47;;;5.88;;
15116;SDS011;7659;51.038;13.786;2023-06-22T11:32:48;9.55;;;5.78;;
15116;SDS011;7659;51.038;13.786;2023-06-22T11:35:13;10.82;;;5.72;;
15116;SDS011;7659;51.038;13.786;2023-06-22T11:37:39;7.45;;;5.45;;
15116;SDS011;7659;51.038;13.786;2023-06-22T11:40:04;8.43;;;5.88;;
15116;SDS011;7659;51.038;13.786;2023-06-22T11:42:30;6.13;;;5.53;;
15116;SDS011;7659;51.038;13.786;2023-06-22T11:44:56;6.88;;;5.88;;
15116;SDS011;7659;51.038;13.786;2023-06-22T11:47:21;8.90;;;6.00;;
15116;SDS011;7659;51.038;13.786;2023-06-22T11:49:47;7.18;;;5.35;;
15116;SDS011;7659;51.038;13.786;2023-06-22T11:52:12;9.57;;;6.00;;
15116;SDS011;7659;51.038;13.786;2023-06-22T11:54:38;8.45;;;6.00;;
15116;SDS011;7659;51.038;13.786;2023-06-22T11:57:04;6.00;;;5.30;;
15116;SDS011;7659;51.038;13.786;2023-06-22T11:59:29;9.25;;;5.88;;
15116;SDS011;7659;51.038;13.786;2023-06-22T12:01:55;8.20;;;5.65;;
15116;SDS011;7659;51.038;13.786;2023-06-22T12:04:20;11.77;;;5.82;;
15116;SDS011;7659;51.038;13.786;2023-06-22T12:06:46;8.65;;;5.30;;
15116;SDS011;7659;51.038;13.786;2023-06-22T12:09:11;7.97;;;5.53;;
15116;SDS011;7659;51.038;13.786;2023-06-22T12:11:38;16.58;;;6.03;;
15116;SDS011;7659;51.038;13.786;2023-06-22T12:14:04;14.20;;;5.70;;
15116;SDS011;7659;51.038;13.786;2023-06-22T12:16:29;17.02;;;5.88;;
15116;SDS011;7659;51.038;13.786;2023-06-22T12:18:55;9.13;;;5.22;;
15116;SDS011;7659;51.038;13.786;2023-06-22T12:21:20;6.30;;;5.18;;
15116;SDS011;7659;51.038;13.786;2023-06-22T12:23:46;8.63;;;5.57;;
15116;SDS011;7659;51.038;13.786;2023-06-22T12:26:11;7.55;;;5.60;;
15116;SDS011;7659;51.038;13.786;2023-06-22T12:28:37;10.63;;;5.40;;
15116;SDS011;7659;51.038;13.786;2023-06-22T12:31:02;12.75;;;5.43;;
15116;SDS011;7659;51.038;13.786;2023-06-22T12:33:28;7.03;;;5.47;;
15116;SDS011;7659;51.038;13.786;2023-06-22T12:35:56;11.73;;;5.40;;
15116;SDS011;7659;51.038;13.786;2023-06-22T12:38:22;6.43;;;5.40;;
15116;SDS011;7659;51.038;13.786;2023-06-22T12:40:47;9.43;;;5.57;;
15116;SDS011;7659;51.038;13.786;2023-06-22T12:43:14;5.88;;;5.25;;
15116;SDS011;7659;51.038;13.786;2023-06-22T12:45:40;9.52;;;5.88;;
15116;SDS011;7659;51.038;13.786;2023-06-22T12:48:05;9.27;;;5.40;;
15116;SDS011;7659;51.038;13.786;2023-06-22T12:50:31;11.40;;;5.30;;
15116;SDS011;7659;51.038;13.786;2023-06-22T12:52:56;7.80;;;5.70;;
15116;SDS011;7659;51.038;13.786;2023-06-22T12:55:22;6.88;;;5.35;;
15116;SDS011;7659;51.038;13.786;2023-06-22T12:57:48;6.03;;;5.32;;
15116;SDS011;7659;51.038;13.786;2023-06-22T13:00:16;6.35;;;5.28;;
15116;SDS011;7659;51.038;13.786;2023-06-22T13:02:42;6.72;;;5.70;;
15116;SDS011;7659;51.038;13.786;2023-06-22T13:05:07;6.13;;;5.47;;
15116;SDS011;7659;51.038;13.786;2023-06-22T13:07:33;5.97;;;5.00;;
15116;SDS011;7659;51.038;13.786;2023-06-22T13:09:59;7.13;;;4.82;;
15116;SDS011;7659;51.038;13.786;2023-06-22T13:12:25;6.55;;;4.80;;
15116;SDS011;7659;51.038;13.786;2023-06-22T13:14:50;6.50;;;5.03;;
15116;SDS011;7659;51.038;13.786;2023-06-22T13:17:16;8.27;;;5.05;;
15116;SDS011;7659;51.038;13.786;2023-06-22T13:19:42;8.55;;;5.05;;
15116;SDS011;7659;51.038;13.786;2023-06-22T13:22:29;8.35;;;4.75;;
15116;SDS011;7659;51.038;13.786;2023-06-22T13:24:54;8.95;;;5.05;;
15116;SDS011;7659;51.038;13.786;2023-06-22T13:27:20;10.20;;;4.80;;
15116;SDS011;7659;51.038;13.786;2023-06-22T13:29:45;5.00;;;4.47;;
15116;SDS011;7659;51.038;13.786;2023-06-22T13:32:11;4.93;;;4.40;;
15116;SDS011;7659;51.038;13.786;2023-06-22T13:34:36;9.80;;;5.28;;
15116;SDS011;7659;51.038;13.786;2023-06-22T13:37:02;4.50;;;4.10;;
15116;SDS011;7659;51.038;13.786;2023-06-22T13:39:29;8.88;;;4.43;;
15116;SDS011;7659;51.038;13.786;2023-06-22T13:41:54;8.63;;;3.90;;
15116;SDS011;7659;51.038;13.786;2023-06-22T13:44:45;4.65;;;3.92;;
15116;SDS011;7659;51.038;13.786;2023-06-22T13:47:29;4.13;;;3.65;;
15116;SDS011;7659;51.038;13.786;2023-06-22T13:50:14;25.90;;;4.45;;
15116;SDS011;7659;51.038;13.786;2023-06-22T13:52:39;5.97;;;3.88;;
15116;SDS011;7659;51.038;13.786;2023-06-22T13:55:05;4.72;;;3.83;;
15116;SDS011;7659;51.038;13.786;2023-06-22T13:57:32;5.63;;;4.38;;
15116;SDS011;7659;51.038;13.786;2023-06-22T13:59:57;4.65;;;4.18;;
15116;SDS011;7659;51.038;13.786;2023-06-22T14:02:23;9.80;;;4.30;;
15116;SDS011;7659;51.038;13.786;2023-06-22T14:04:49;5.68;;;4.63;;
15116;SDS011;7659;51.038;13.786;2023-06-22T14:07:14;16.08;;;5.13;;
15116;SDS011;7659;51.038;13.786;2023-06-22T14:09:40;5.43;;;4.40;;
15116;SDS011;7659;51.038;13.786;2023-06-22T14:12:06;5.88;;;3.72;;
15116;SDS011;7659;51.038;13.786;2023-06-22T14:14:32;3.90;;;3.50;;
15116;SDS011;7659;51.038;13.786;2023-06-22T14:16:58;6.63;;;4.10;;
15116;SDS011;7659;51.038;13.786;2023-06-22T14:19:24;7.72;;;4.13;;
15116;SDS011;7659;51.038;13.786;2023-06-22T14:21:49;6.38;;;3.97;;
15116;SDS011;7659;51.038;13.786;2023-06-22T14:24:15;6.65;;;4.30;;
15116;SDS011;7659;51.038;13.786;2023-06-22T14:26:41;7.90;;;4.55;;
15116;SDS011;7659;51.038;13.786;2023-06-22T14:29:06;8.13;;;4.18;;
15116;SDS011;7659;51.038;13.786;2023-06-22T14:31:32;6.63;;;4.03;;
15116;SDS011;7659;51.038;13.786;2023-06-22T14:33:58;4.05;;;3.60;;
15116;SDS011;7659;51.038;13.786;2023-06-22T14:36:23;5.43;;;3.45;;
15116;SDS011;7659;51.038;13.786;2023-06-22T14:38:49;6.82;;;3.83;;